Time;durP1;ratioP1;P1;durP2;ratioP2;P2;SDS_P1;SDS_P2;PMS_P1;PMS_P2;Temp;Humidity;BMP_temperature;BMP_pressure;BME280_temperature;BME280_humidity;BME280_pressure;Samples;Min_cycle;Max_cycle;Signal;HPM_P1;HPM_P2
2023/03/16 00:01:31;;;;;;;36.60;14.30;;;;;;;-0.65;79.82;100681.35;106504;1259;22552;-57
2023/03/16 00:04:02;;;;;;;31.50;10.10;;;;;;;-0.69;80.02;100684.01;106519;1270;22676;-55
2023/03/16 00:06:32;;;;;;;26.00;9.60;;;;;;;-0.72;80.12;100680.79;106522;1266;22577;-55
2023/03/16 00:09:03;;;;;;;26.80;8.40;;;;;;;-0.76;80.05;100684.08;106525;1274;22652;-55
2023/03/16 00:11:34;;;;;;;36.80;13.70;;;;;;;-0.78;80.25;100682.36;106540;1271;25373;-55
2023/03/16 00:14:05;;;;;;;41.70;17.60;;;;;;;-0.81;80.34;100683.92;106584;1259;25522;-58
2023/03/16 00:16:36;;;;;;;43.00;18.20;;;;;;;-0.82;80.43;100681.58;106544;1274;22518;-56
2023/03/16 00:19:07;;;;;;;42.30;17.10;;;;;;;-0.84;80.44;100685.65;106524;1274;24253;-55
2023/03/16 00:21:38;;;;;;;42.70;17.00;;;;;;;-0.85;80.61;100688.63;106511;1267;23055;-55
2023/03/16 00:24:11;;;;;;;43.80;17.50;;;;;;;-0.88;80.99;100692.46;106678;1271;25160;-56
2023/03/16 00:26:42;;;;;;;34.50;14.90;;;;;;;-0.89;80.94;100696.92;106531;1271;25493;-56
2023/03/16 00:29:13;;;;;;;40.50;16.60;;;;;;;-0.91;80.95;100698.41;106558;1271;24390;-57
2023/03/16 00:31:44;;;;;;;44.10;17.20;;;;;;;-0.93;81.10;100698.33;106534;1267;22628;-55
2023/03/16 00:34:15;;;;;;;43.90;17.60;;;;;;;-0.93;81.12;100698.17;106623;1259;25504;-55
2023/03/16 00:36:46;;;;;;;45.40;16.60;;;;;;;-0.94;81.21;100702.31;106479;1270;27098;-55
2023/03/16 00:39:17;;;;;;;49.70;17.00;;;;;;;-0.96;81.26;100704.36;106575;1268;22517;-54
2023/03/16 00:41:48;;;;;;;38.90;17.10;;;;;;;-0.96;81.30;100705.45;106682;1274;25418;-56
2023/03/16 00:44:20;;;;;;;42.90;15.70;;;;;;;-0.97;81.29;100705.38;106612;1274;22608;-54
2023/03/16 00:46:51;;;;;;;39.50;14.20;;;;;;;-0.98;81.29;100706.08;106577;1264;24264;-57
2023/03/16 00:49:22;;;;;;;31.50;12.30;;;;;;;-0.99;81.27;100711.39;106617;1270;22574;-57
2023/03/16 00:51:53;;;;;;;34.60;12.80;;;;;;;-1.01;81.10;100710.39;106504;1274;22869;-54
2023/03/16 00:54:25;;;;;;;33.10;10.50;;;;;;;-1.02;81.11;100712.58;106548;1259;24242;-54
2023/03/16 00:56:56;;;;;;;32.90;12.60;;;;;;;-1.03;81.01;100712.27;106565;1266;22696;-54
2023/03/16 00:59:27;;;;;;;32.70;10.30;;;;;;;-1.05;80.97;100712.97;106497;1274;22521;-56
2023/03/16 01:01:58;;;;;;;30.90;11.80;;;;;;;-1.08;81.01;100719.61;106716;1268;24271;-57
2023/03/16 01:04:29;;;;;;;28.90;11.90;;;;;;;-1.10;81.10;100723.04;106362;1274;243888;-58
2023/03/16 01:07:01;;;;;;;32.20;10.50;;;;;;;-1.12;81.15;100724.67;106780;1271;24240;-57
2023/03/16 01:09:35;;;;;;;28.20;12.30;;;;;;;-1.13;81.18;100722.17;106767;1263;22609;-59
2023/03/16 01:12:09;;;;;;;31.20;11.40;;;;;;;-1.14;81.09;100723.27;106736;1274;24555;-53
2023/03/16 01:14:40;;;;;;;31.40;11.70;;;;;;;-1.17;80.96;100724.76;106660;1274;23168;-56
2023/03/16 01:17:12;;;;;;;35.50;13.10;;;;;;;-1.19;81.00;100726.94;106647;1268;25590;-57
2023/03/16 01:19:44;;;;;;;31.90;10.70;;;;;;;-1.19;81.09;100726.95;106646;1274;25472;-55
2023/03/16 01:22:15;;;;;;;27.60;11.10;;;;;;;-1.22;81.08;100733.35;106648;1270;22521;-55
2023/03/16 01:24:47;;;;;;;35.50;11.60;;;;;;;-1.24;81.08;100734.77;106592;1260;22547;-54
2023/03/16 01:27:18;;;;;;;31.90;11.80;;;;;;;-1.26;81.08;100733.81;106583;1270;23141;-57
2023/03/16 01:29:48;;;;;;;35.80;12.00;;;;;;;-1.29;81.09;100738.27;106498;1267;25508;-54
2023/03/16 01:32:19;;;;;;;34.60;12.10;;;;;;;-1.30;81.11;100741.39;106492;1274;25968;-54
2023/03/16 01:34:50;;;;;;;33.40;12.20;;;;;;;-1.31;81.26;100745.69;106523;1275;26107;-56
2023/03/16 01:37:21;;;;;;;34.20;12.30;;;;;;;-1.33;81.31;100744.44;106486;1259;22531;-54
2023/03/16 01:39:52;;;;;;;35.60;11.60;;;;;;;-1.33;81.24;100746.30;106635;1268;25509;-57
2023/03/16 01:42:24;;;;;;;33.00;11.20;;;;;;;-1.36;81.25;100748.59;106540;1268;25517;-54
2023/03/16 01:45:00;;;;;;;35.40;12.10;;;;;;;-1.39;81.36;100753.56;106617;1274;23028;-57
2023/03/16 01:47:36;;;;;;;28.60;9.90;;;;;;;-1.39;81.44;100751.22;106641;1274;24397;-54
2023/03/16 01:50:09;;;;;;;32.10;10.40;;;;;;;-1.40;81.37;100753.09;106565;1267;22790;-56
2023/03/16 01:52:41;;;;;;;28.00;9.40;;;;;;;-1.44;81.40;100751.98;106518;1274;22742;-56
2023/03/16 01:55:13;;;;;;;30.10;10.30;;;;;;;-1.46;81.46;100761.05;106633;1266;22550;-56
2023/03/16 01:57:47;;;;;;;28.00;9.30;;;;;;;-1.46;81.46;100758.39;106548;1253;22519;-58
2023/03/16 02:00:22;;;;;;;36.10;10.90;;;;;;;-1.47;81.51;100758.23;106705;1259;22537;-54
2023/03/16 02:02:58;;;;;;;32.60;11.40;;;;;;;-1.50;81.57;100755.95;106558;1274;23048;-55
2023/03/16 02:05:33;;;;;;;33.20;10.20;;;;;;;-1.52;81.55;100760.09;106547;1259;24265;-57
2023/03/16 02:08:05;;;;;;;30.80;9.70;;;;;;;-1.54;81.70;100761.17;106547;1274;23157;-55
2023/03/16 02:10:37;;;;;;;32.30;10.20;;;;;;;-1.56;81.86;100763.74;106691;1274;25500;-58
2023/03/16 02:13:10;;;;;;;35.10;10.80;;;;;;;-1.59;82.13;100765.22;106558;1267;22840;-58
2023/03/16 02:15:41;;;;;;;32.60;10.80;;;;;;;-1.59;82.17;100766.32;106547;1266;22607;-55
2023/03/16 02:18:12;;;;;;;32.70;11.50;;;;;;;-1.61;82.38;100768.03;106599;1271;25491;-58
2023/03/16 02:20:49;;;;;;;30.50;10.20;;;;;;;-1.61;82.66;100768.89;106834;1274;22899;-58
2023/03/16 02:23:21;;;;;;;33.50;11.30;;;;;;;-1.62;83.02;100769.44;106541;1267;22614;-57
2023/03/16 02:25:58;;;;;;;28.80;9.00;;;;;;;-1.61;82.99;100767.63;106526;1274;22563;-58
2023/03/16 02:28:34;;;;;;;27.70;8.50;;;;;;;-1.60;83.23;100768.66;106555;1271;22840;-55
2023/03/16 02:31:06;;;;;;;28.40;8.90;;;;;;;-1.60;83.27;100772.73;106779;1275;25509;-57
2023/03/16 02:33:38;;;;;;;28.40;8.20;;;;;;;-1.60;83.46;100772.41;106735;1271;24243;-54
2023/03/16 02:36:10;;;;;;;25.40;7.50;;;;;;;-1.59;83.64;100773.36;106552;1268;24215;-55
2023/03/16 02:38:41;;;;;;;25.50;7.90;;;;;;;-1.57;83.96;100776.11;106682;1259;22609;-56
2023/03/16 02:41:14;;;;;;;27.40;7.30;;;;;;;-1.54;84.24;100778.86;106723;1259;22768;-57
2023/03/16 02:43:52;;;;;;;24.20;6.80;;;;;;;-1.51;84.15;100777.20;106773;1271;22717;-57
2023/03/16 02:46:26;;;;;;;26.80;7.00;;;;;;;-1.48;84.19;100782.09;106529;1259;24350;-57
2023/03/16 02:49:04;;;;;;;25.30;7.80;;;;;;;-1.46;84.29;100783.42;106576;1267;22563;-57
2023/03/16 02:51:35;;;;;;;20.10;6.30;;;;;;;-1.44;84.44;100781.64;106596;1272;24263;-55
2023/03/16 02:54:06;;;;;;;19.90;5.80;;;;;;;-1.43;84.32;100788.06;106513;1271;25672;-58
2023/03/16 02:56:37;;;;;;;21.60;5.40;;;;;;;-1.41;84.44;100790.73;106692;1271;25527;-58
2023/03/16 02:59:08;;;;;;;17.60;4.40;;;;;;;-1.40;84.55;100791.75;106566;1274;22698;-57
2023/03/16 03:01:39;;;;;;;23.80;5.60;;;;;;;-1.38;84.67;100791.75;106627;1274;24220;-56
2023/03/16 03:04:10;;;;;;;18.10;5.30;;;;;;;-1.37;84.91;100792.00;106533;1271;22766;-54
2023/03/16 03:06:41;;;;;;;23.10;4.50;;;;;;;-1.34;84.94;100796.46;106514;1274;24263;-54
2023/03/16 03:09:13;;;;;;;18.70;4.20;;;;;;;-1.34;84.85;100795.76;106846;1272;22564;-58
2023/03/16 03:11:45;;;;;;;21.50;4.30;;;;;;;-1.32;85.03;100794.98;106778;1263;25573;-57
2023/03/16 03:14:16;;;;;;;24.80;4.70;;;;;;;-1.31;85.08;100793.66;106620;1259;22819;-58
2023/03/16 03:16:47;;;;;;;18.60;4.70;;;;;;;-1.31;85.23;100797.81;106602;1274;24327;-57
2023/03/16 03:19:17;;;;;;;19.40;5.00;;;;;;;-1.28;85.21;100799.39;106529;1275;24247;-56
2023/03/16 03:21:48;;;;;;;21.40;5.00;;;;;;;-1.27;85.33;100799.08;106520;1274;24235;-55
2023/03/16 03:24:19;;;;;;;23.30;5.00;;;;;;;-1.26;85.40;100804.33;106530;1274;22559;-56
2023/03/16 03:26:51;;;;;;;21.20;4.10;;;;;;;-1.25;85.51;100806.45;106557;1274;24738;-56
2023/03/16 03:29:22;;;;;;;20.00;5.00;;;;;;;-1.24;85.24;100810.76;106579;1274;22588;-56
2023/03/16 03:31:53;;;;;;;16.00;4.00;;;;;;;-1.24;85.48;100812.40;106513;1274;24265;-56
2023/03/16 03:34:23;;;;;;;15.20;4.20;;;;;;;-1.23;85.45;100812.08;106495;1268;23020;-57
2023/03/16 03:36:54;;;;;;;18.40;4.60;;;;;;;-1.23;85.43;100813.27;106508;1266;24242;-56
2023/03/16 03:39:26;;;;;;;17.00;4.60;;;;;;;-1.22;85.38;100817.41;106713;1271;22638;-58
2023/03/16 03:41:57;;;;;;;20.40;4.40;;;;;;;-1.24;85.39;100817.64;106571;1271;22879;-58
2023/03/16 03:44:28;;;;;;;21.30;4.60;;;;;;;-1.25;85.39;100818.35;106561;1259;22587;-57
2023/03/16 03:46:59;;;;;;;16.20;4.60;;;;;;;-1.26;85.42;100823.42;106539;1274;24316;-55
2023/03/16 03:49:30;;;;;;;22.20;4.60;;;;;;;-1.27;85.33;100824.67;106518;1271;22581;-56
2023/03/16 03:52:03;;;;;;;17.80;4.10;;;;;;;-1.29;85.20;100824.05;106462;1272;22628;-56
2023/03/16 03:54:34;;;;;;;18.40;5.50;;;;;;;-1.30;85.22;100824.27;106604;1266;25399;-57
2023/03/16 03:57:05;;;;;;;25.90;6.60;;;;;;;-1.32;85.31;100828.16;106594;1266;22757;-57
2023/03/16 03:59:41;;;;;;;19.80;5.60;;;;;;;-1.32;85.24;100829.02;106638;1274;22585;-57
2023/03/16 04:02:13;;;;;;;20.30;6.00;;;;;;;-1.33;85.15;100830.43;106537;1274;24218;-56
2023/03/16 04:04:45;;;;;;;18.90;6.10;;;;;;;-1.34;85.29;100830.98;106567;1274;22518;-57
2023/03/16 04:07:15;;;;;;;23.10;7.20;;;;;;;-1.34;85.04;100831.60;106518;1273;22592;-55
2023/03/16 04:09:46;;;;;;;27.40;6.40;;;;;;;-1.36;85.17;100833.39;106554;1271;22522;-56
2023/03/16 04:12:17;;;;;;;22.20;6.00;;;;;;;-1.38;85.37;100836.91;106622;1271;25037;-58
2023/03/16 04:14:48;;;;;;;26.40;7.60;;;;;;;-1.39;85.43;100839.16;106602;1273;24256;-57
2023/03/16 04:17:19;;;;;;;24.90;5.80;;;;;;;-1.41;85.35;100835.80;106581;1273;22606;-58
2023/03/16 04:19:50;;;;;;;22.80;5.20;;;;;;;-1.41;85.45;100837.36;106541;1274;22688;-55
2023/03/16 04:22:22;;;;;;;18.40;6.10;;;;;;;-1.41;85.33;100839.48;106590;1273;22527;-57
2023/03/16 04:24:52;;;;;;;22.20;5.40;;;;;;;-1.42;85.41;100840.17;106757;1272;22543;-58
2023/03/16 04:27:26;;;;;;;19.70;5.30;;;;;;;-1.44;85.34;100840.79;106508;1274;25701;-57
2023/03/16 04:29:58;;;;;;;23.90;6.60;;;;;;;-1.46;85.28;100841.80;106547;1274;22682;-55
2023/03/16 04:32:29;;;;;;;21.30;5.70;;;;;;;-1.47;85.10;100846.65;106639;1268;22578;-56
2023/03/16 04:35:00;;;;;;;21.10;5.50;;;;;;;-1.48;85.04;100845.61;106602;1274;25686;-56
2023/03/16 04:37:31;;;;;;;22.00;5.70;;;;;;;-1.50;84.82;100850.92;106516;1268;22639;-55
2023/03/16 04:40:08;;;;;;;25.20;6.50;;;;;;;-1.51;84.70;100849.35;106476;1275;25988;-55
2023/03/16 04:42:39;;;;;;;20.50;5.90;;;;;;;-1.53;84.55;100850.05;106477;1274;22544;-57
2023/03/16 04:45:12;;;;;;;19.60;6.30;;;;;;;-1.55;84.52;100847.61;106540;1261;22630;-54
2023/03/16 04:47:43;;;;;;;17.60;5.50;;;;;;;-1.56;84.53;100852.15;106698;1267;22546;-56
2023/03/16 04:50:15;;;;;;;20.20;5.40;;;;;;;-1.57;84.26;100851.97;106602;1265;25481;-55
2023/03/16 04:52:45;;;;;;;18.50;5.40;;;;;;;-1.60;84.39;100857.67;106788;1262;25662;-56
2023/03/16 04:55:17;;;;;;;32.00;6.40;;;;;;;-1.64;84.47;100865.40;106615;1266;23021;-55
2023/03/16 04:57:47;;;;;;;20.00;5.60;;;;;;;-1.66;84.45;100867.09;106676;1274;22578;-55
2023/03/16 05:00:19;;;;;;;23.20;5.90;;;;;;;-1.67;84.54;100868.41;106460;1267;22567;-61
2023/03/16 05:02:51;;;;;;;22.90;5.70;;;;;;;-1.68;84.53;100872.48;106775;1259;22644;-57
2023/03/16 05:05:23;;;;;;;24.90;6.40;;;;;;;-1.68;84.52;100868.33;106625;1260;24744;-56
2023/03/16 05:07:53;;;;;;;18.40;5.00;;;;;;;-1.69;84.43;100870.30;106649;1274;22535;-57
2023/03/16 05:10:24;;;;;;;17.40;4.90;;;;;;;-1.70;84.40;100872.32;106529;1274;22700;-54
2023/03/16 05:12:55;;;;;;;23.20;4.80;;;;;;;-1.72;84.33;100874.80;106701;1275;22632;-57
2023/03/16 05:15:27;;;;;;;17.40;4.20;;;;;;;-1.74;84.27;100876.13;106783;1267;25554;-57
2023/03/16 05:17:58;;;;;;;21.70;4.90;;;;;;;-1.75;84.26;100882.13;106651;1272;22781;-56
2023/03/16 05:20:30;;;;;;;24.00;5.20;;;;;;;-1.76;84.19;100879.78;106681;1269;25617;-60
2023/03/16 05:23:01;;;;;;;17.50;4.70;;;;;;;-1.76;84.28;100881.58;106610;1274;25666;-54
2023/03/16 05:25:32;;;;;;;24.10;5.70;;;;;;;-1.76;84.27;100883.77;106572;1273;23741;-58
2023/03/16 05:28:04;;;;;;;23.80;6.10;;;;;;;-1.75;84.32;100886.73;106618;1271;24265;-58
2023/03/16 05:30:35;;;;;;;17.40;4.70;;;;;;;-1.75;84.37;100881.20;106593;1271;22604;-58
2023/03/16 05:33:06;;;;;;;19.10;4.80;;;;;;;-1.74;84.29;100880.50;106886;1259;22557;-58
2023/03/16 05:35:38;;;;;;;21.20;5.10;;;;;;;-1.74;84.30;100881.20;106571;1273;22763;-58
2023/03/16 05:38:09;;;;;;;18.80;4.10;;;;;;;-1.73;84.14;100885.59;106700;1254;22532;-58
2023/03/16 05:40:41;;;;;;;17.80;4.40;;;;;;;-1.75;84.23;100886.98;106679;1273;22600;-59
2023/03/16 05:43:12;;;;;;;18.00;3.50;;;;;;;-1.76;84.23;100891.58;106520;1273;25476;-58
2023/03/16 05:45:43;;;;;;;16.80;4.40;;;;;;;-1.76;84.33;100890.80;106661;1274;24266;-58
2023/03/16 05:48:15;;;;;;;18.50;4.10;;;;;;;-1.74;84.32;100899.11;106590;1274;22879;-59
2023/03/16 05:50:47;;;;;;;22.00;4.70;;;;;;;-1.73;84.38;100895.52;106896;1274;25554;-58
2023/03/16 05:53:18;;;;;;;19.40;4.30;;;;;;;-1.70;84.29;100894.44;106629;1259;25556;-58
2023/03/16 05:55:53;;;;;;;20.40;4.70;;;;;;;-1.68;84.41;100896.34;106786;1274;24412;-59
2023/03/16 05:58:24;;;;;;;14.80;3.70;;;;;;;-1.66;84.38;100898.55;106590;1271;22554;-59
2023/03/16 06:00:55;;;;;;;20.40;5.10;;;;;;;-1.63;84.38;100900.60;106574;1271;22583;-56
2023/03/16 06:03:27;;;;;;;16.90;4.40;;;;;;;-1.63;84.47;100904.75;106565;1272;22666;-56
2023/03/16 06:05:58;;;;;;;16.80;4.40;;;;;;;-1.63;84.48;100904.66;106600;1267;24222;-58
2023/03/16 06:08:29;;;;;;;18.30;3.90;;;;;;;-1.62;84.67;100909.14;106663;1274;22564;-56
2023/03/16 06:11:00;;;;;;;16.10;3.90;;;;;;;-1.61;84.82;100915.79;106649;1269;25667;-58
2023/03/16 06:13:31;;;;;;;19.90;5.10;;;;;;;-1.62;85.09;100919.30;106562;1261;22567;-57
2023/03/16 06:16:02;;;;;;;17.40;3.40;;;;;;;-1.62;85.35;100925.56;106527;1272;22567;-57
2023/03/16 06:18:33;;;;;;;26.30;4.70;;;;;;;-1.59;85.78;100927.67;106564;1271;25364;-57
2023/03/16 06:21:04;;;;;;;23.20;5.10;;;;;;;-1.56;86.35;100929.04;106558;1271;22593;-59
2023/03/16 06:23:35;;;;;;;17.50;4.50;;;;;;;-1.51;86.84;100933.14;106635;1274;24224;-57
2023/03/16 06:26:06;;;;;;;17.60;5.20;;;;;;;-1.44;87.18;100932.02;106722;1274;25631;-56
2023/03/16 06:28:37;;;;;;;22.70;6.30;;;;;;;-1.38;87.32;100937.15;106589;1274;22561;-56
2023/03/16 06:31:08;;;;;;;21.10;5.40;;;;;;;-1.30;87.64;100937.73;106558;1272;25938;-56
2023/03/16 06:33:39;;;;;;;24.00;4.20;;;;;;;-1.22;87.89;100942.40;106579;1269;24210;-55
2023/03/16 06:36:10;;;;;;;19.50;4.00;;;;;;;-1.13;88.03;100941.20;106615;1270;25689;-55
2023/03/16 06:38:41;;;;;;;17.80;4.10;;;;;;;-1.04;88.20;100938.60;106750;1269;22751;-58
2023/03/16 06:41:12;;;;;;;18.30;4.60;;;;;;;-0.96;88.13;100941.30;106593;1269;22603;-58
2023/03/16 06:43:43;;;;;;;20.90;7.10;;;;;;;-0.87;88.34;100940.23;106599;1274;24244;-55
2023/03/16 06:46:14;;;;;;;20.40;4.10;;;;;;;-0.78;88.26;100943.80;106526;1272;24272;-57
2023/03/16 06:48:46;;;;;;;23.90;4.30;;;;;;;-0.68;88.30;100944.86;106593;1267;23061;-55
2023/03/16 06:51:17;;;;;;;15.90;4.00;;;;;;;-0.60;88.27;100944.73;106607;1267;24238;-56
2023/03/16 06:53:48;;;;;;;11.80;3.00;;;;;;;-0.51;88.22;100947.98;106811;1274;22517;-56
2023/03/16 06:56:19;;;;;;;15.50;4.10;;;;;;;-0.41;88.18;100951.69;106530;1265;22591;-56
2023/03/16 06:58:50;;;;;;;22.50;3.70;;;;;;;-0.32;88.12;100950.55;106569;1275;25521;-55
2023/03/16 07:01:21;;;;;;;17.60;3.40;;;;;;;-0.24;87.98;100951.67;106599;1274;25453;-58
2023/03/16 07:03:53;;;;;;;11.70;2.50;;;;;;;-0.16;88.05;100953.25;106795;1271;22518;-55
2023/03/16 07:06:25;;;;;;;19.80;3.80;;;;;;;-0.07;87.93;100952.95;106621;1267;25439;-56
2023/03/16 07:09:00;;;;;;;14.00;2.60;;;;;;;-0.02;87.80;100953.27;106640;1274;22533;-57
2023/03/16 07:11:32;;;;;;;18.90;3.00;;;;;;;0.07;87.84;100956.27;106747;1270;22768;-55
2023/03/16 07:14:04;;;;;;;15.10;3.60;;;;;;;0.16;87.92;100956.19;106665;1274;22521;-58
2023/03/16 07:16:35;;;;;;;18.20;2.90;;;;;;;0.24;87.71;100957.30;106700;1274;22524;-59
2023/03/16 07:19:08;;;;;;;15.80;2.50;;;;;;;0.32;87.62;100965.77;108040;1268;25473;-56
2023/03/16 07:21:40;;;;;;;12.40;2.00;;;;;;;0.41;87.56;100961.30;106701;1274;23846;-54
2023/03/16 07:24:14;;;;;;;12.30;2.10;;;;;;;0.51;87.67;100966.23;106799;1268;22527;-56
2023/03/16 07:26:46;;;;;;;13.90;2.40;;;;;;;0.61;87.53;100963.17;106797;1271;22587;-55
2023/03/16 07:29:17;;;;;;;17.00;3.70;;;;;;;0.70;87.37;100964.56;106635;1269;22797;-56
2023/03/16 07:31:49;;;;;;;12.80;2.20;;;;;;;0.81;87.24;100972.40;106687;1275;22533;-58
2023/03/16 07:34:21;;;;;;;15.00;2.00;;;;;;;0.90;87.14;100972.16;106761;1275;22579;-55
2023/03/16 07:36:52;;;;;;;17.10;3.40;;;;;;;0.97;86.62;100974.41;106589;1271;22543;-57
2023/03/16 07:39:30;;;;;;;13.00;2.20;;;;;;;1.05;86.72;100972.90;106583;1268;22644;-55
2023/03/16 07:42:02;;;;;;;15.10;2.80;;;;;;;1.15;87.12;100974.06;106588;1274;25466;-57
2023/03/16 07:44:34;;;;;;;12.80;2.50;;;;;;;1.24;86.68;100978.50;106611;1263;25324;-55
2023/03/16 07:47:06;;;;;;;12.90;2.10;;;;;;;1.32;86.22;100982.56;106618;1274;22539;-57
2023/03/16 07:49:38;;;;;;;14.40;2.20;;;;;;;1.39;86.00;100986.55;106675;1275;22533;-58
2023/03/16 07:52:15;;;;;;;14.70;2.20;;;;;;;1.48;86.00;100987.07;106577;1274;25476;-58
2023/03/16 07:54:45;;;;;;;12.30;1.90;;;;;;;1.55;85.73;100985.77;106672;1274;22527;-56
2023/03/16 07:57:16;;;;;;;7.50;1.60;;;;;;;1.64;85.63;100986.52;106569;1272;23694;-55
2023/03/16 07:59:48;;;;;;;13.90;2.10;;;;;;;1.72;85.17;100986.64;106629;1274;24367;-56
2023/03/16 08:02:20;;;;;;;15.70;3.10;;;;;;;1.79;85.04;100982.52;106578;1274;22515;-56
2023/03/16 08:04:51;;;;;;;11.10;2.00;;;;;;;1.88;85.08;100986.23;106673;1275;22522;-58
2023/03/16 08:07:26;;;;;;;11.00;1.30;;;;;;;1.97;84.62;100982.01;106716;1272;22556;-57
2023/03/16 08:09:57;;;;;;;12.20;2.60;;;;;;;2.04;84.13;100987.17;106608;1275;22525;-58
2023/03/16 08:12:29;;;;;;;14.20;1.60;;;;;;;2.12;84.01;100988.92;106591;1271;22524;-58
2023/03/16 08:14:59;;;;;;;10.70;1.90;;;;;;;2.22;84.07;100992.72;106552;1268;24012;-55
2023/03/16 08:17:31;;;;;;;9.50;1.60;;;;;;;2.31;84.06;100990.61;106626;1268;22507;-57
2023/03/16 08:20:06;;;;;;;13.60;2.70;;;;;;;2.41;83.96;100995.33;106597;1275;22650;-57
2023/03/16 08:22:37;;;;;;;8.30;1.40;;;;;;;2.50;83.57;100995.96;106655;1267;24221;-55
2023/03/16 08:25:10;;;;;;;13.20;1.70;;;;;;;2.56;82.79;100996.78;106617;1268;22610;-55
2023/03/16 08:27:49;;;;;;;13.30;1.40;;;;;;;2.62;82.65;101003.11;106620;1263;22535;-58
2023/03/16 08:30:21;;;;;;;15.60;1.80;;;;;;;2.71;82.58;101001.30;106696;1271;24259;-56
2023/03/16 08:32:56;;;;;;;8.60;1.30;;;;;;;2.79;81.96;101006.20;106902;1268;25364;-57
2023/03/16 08:35:28;;;;;;;13.00;1.30;;;;;;;2.87;82.04;101008.02;106672;1260;25335;-55
2023/03/16 08:37:59;;;;;;;10.30;1.30;;;;;;;2.95;82.11;101010.84;106778;1274;22545;-59
2023/03/16 08:40:33;;;;;;;13.90;1.50;;;;;;;3.04;81.43;101008.64;106812;1270;22533;-54
2023/03/16 08:43:07;;;;;;;12.10;1.20;;;;;;;3.10;80.14;101012.73;106658;1267;22522;-55
2023/03/16 08:45:38;;;;;;;16.80;2.30;;;;;;;3.17;80.11;101011.72;106588;1274;22662;-55
2023/03/16 08:48:13;;;;;;;13.80;1.20;;;;;;;3.25;80.14;101014.33;106670;1264;22529;-57
2023/03/16 08:50:45;;;;;;;16.20;1.20;;;;;;;3.34;80.07;101018.09;106650;1251;22530;-55
2023/03/16 08:53:21;;;;;;;15.60;1.20;;;;;;;3.43;79.90;101023.42;106679;1272;23390;-56
2023/03/16 08:55:52;;;;;;;10.10;1.00;;;;;;;3.49;79.18;101023.52;106649;1274;22544;-55
2023/03/16 08:58:29;;;;;;;13.80;1.20;;;;;;;3.54;78.95;101022.21;106829;1272;22524;-56
2023/03/16 09:01:00;;;;;;;9.80;1.00;;;;;;;3.61;78.71;101027.56;106650;1272;25345;-59
2023/03/16 09:03:31;;;;;;;8.20;0.90;;;;;;;3.64;78.02;101025.06;106657;1269;22583;-56
2023/03/16 09:06:08;;;;;;;10.10;1.10;;;;;;;3.71;78.67;101027.36;106644;1274;22541;-58
2023/03/16 09:08:39;;;;;;;12.40;1.20;;;;;;;3.80;77.85;101023.30;106722;1272;22531;-58
2023/03/16 09:11:13;;;;;;;10.50;1.40;;;;;;;3.87;78.06;101023.75;106592;1270;23167;-56
2023/03/16 09:13:44;;;;;;;10.10;1.00;;;;;;;3.93;77.68;101022.27;106818;1275;22533;-56
2023/03/16 09:16:16;;;;;;;10.10;1.20;;;;;;;3.99;76.28;101019.41;106528;1274;22521;-55
2023/03/16 09:18:47;;;;;;;10.60;1.50;;;;;;;4.03;76.25;101018.58;106722;1274;25070;-58
2023/03/16 09:21:22;;;;;;;9.60;1.00;;;;;;;4.06;75.90;101019.95;106728;1271;22537;-56
2023/03/16 09:23:55;;;;;;;12.70;0.90;;;;;;;4.10;75.64;101017.77;106688;1268;25248;-54
2023/03/16 09:26:28;;;;;;;12.80;1.50;;;;;;;4.15;76.00;101021.09;106744;1264;22510;-56
2023/03/16 09:28:59;;;;;;;8.70;1.10;;;;;;;4.14;75.82;101018.90;106666;1273;22613;-56
2023/03/16 09:31:30;;;;;;;8.20;0.90;;;;;;;4.10;75.87;101012.00;106560;1261;22573;-54
2023/03/16 09:34:02;;;;;;;5.80;0.90;;;;;;;4.08;75.46;101014.48;106591;1268;22532;-58
2023/03/16 09:36:34;;;;;;;8.20;1.10;;;;;;;4.07;73.01;101017.41;106599;1274;22532;-54
2023/03/16 09:39:05;;;;;;;7.40;0.70;;;;;;;4.09;73.41;101020.86;106629;1274;22542;-56
2023/03/16 09:41:46;;;;;;;6.80;0.90;;;;;;;4.11;72.54;101025.64;106680;1262;22545;-54
2023/03/16 09:44:33;;;;;;;4.70;0.80;;;;;;;4.10;72.75;101024.33;106702;1274;23178;-57
2023/03/16 09:47:09;;;;;;;10.10;1.20;;;;;;;4.08;72.07;101022.92;106650;1275;22520;-55
2023/03/16 09:49:46;;;;;;;10.80;1.00;;;;;;;4.06;71.43;101023.50;106664;1274;24224;-56
2023/03/16 09:52:29;;;;;;;11.10;1.00;;;;;;;4.09;72.76;101024.80;106728;1275;22630;-55
2023/03/16 09:55:04;;;;;;;10.80;0.90;;;;;;;4.14;72.73;101022.85;106816;1275;22524;-56
2023/03/16 09:57:40;;;;;;;10.10;1.30;;;;;;;4.22;73.03;101026.92;106689;1269;22539;-55
2023/03/16 10:00:20;;;;;;;5.40;0.70;;;;;;;4.31;72.71;101026.30;106639;1274;22606;-57
2023/03/16 10:03:16;;;;;;;9.20;0.90;;;;;;;4.42;72.15;101028.27;106707;1275;22935;-54
2023/03/16 10:05:52;;;;;;;8.80;0.80;;;;;;;4.55;70.45;101026.24;106659;1274;22521;-56
2023/03/16 10:08:27;;;;;;;6.00;0.70;;;;;;;4.68;70.44;101027.55;106723;1271;22524;-57
2023/03/16 10:11:23;;;;;;;8.10;1.00;;;;;;;4.75;70.37;101026.00;106697;1268;22529;-56
2023/03/16 10:14:01;;;;;;;9.80;1.20;;;;;;;4.80;71.02;101027.89;106656;1275;25386;-56
2023/03/16 10:16:41;;;;;;;8.20;1.10;;;;;;;4.94;71.17;101027.19;106720;1267;24391;-55
2023/03/16 10:19:18;;;;;;;7.80;0.90;;;;;;;5.08;69.50;101029.94;106697;1275;23151;-57
2023/03/16 10:21:56;;;;;;;6.50;0.90;;;;;;;5.20;68.89;101031.21;106627;1274;24212;-58
2023/03/16 10:24:41;;;;;;;9.90;0.90;;;;;;;5.29;68.96;101026.21;106663;1269;22525;-55
2023/03/16 10:27:19;;;;;;;5.60;1.00;;;;;;;5.30;68.51;101029.61;106623;1274;22524;-57
2023/03/16 10:29:51;;;;;;;8.30;0.90;;;;;;;5.29;68.30;101028.21;106610;1270;22572;-54
2023/03/16 10:32:27;;;;;;;8.80;0.80;;;;;;;5.30;66.10;101033.17;106649;1266;25349;-55
2023/03/16 10:35:04;;;;;;;8.40;1.20;;;;;;;5.26;64.82;101034.52;106595;1274;25352;-56
2023/03/16 10:37:37;;;;;;;9.80;1.30;;;;;;;5.20;66.56;101031.46;106584;1269;22531;-55
2023/03/16 10:40:12;;;;;;;6.20;1.40;;;;;;;5.18;66.58;101028.33;106539;1261;26610;-57
2023/03/16 10:42:45;;;;;;;10.30;1.00;;;;;;;5.20;66.72;101027.98;106614;1274;25483;-59
2023/03/16 10:45:29;;;;;;;7.10;0.80;;;;;;;5.22;65.46;101025.48;106575;1267;22516;-56
2023/03/16 10:48:13;;;;;;;6.20;0.90;;;;;;;5.23;65.44;101027.70;106552;1267;22859;-56
2023/03/16 10:50:49;;;;;;;8.50;1.00;;;;;;;5.22;65.43;101025.40;106704;1270;22531;-55
2023/03/16 10:53:25;;;;;;;5.00;0.80;;;;;;;5.21;65.33;101023.92;106696;1274;22704;-56
2023/03/16 10:56:02;;;;;;;10.70;1.20;;;;;;;5.23;65.19;101017.48;106610;1274;25341;-54
2023/03/16 10:58:41;;;;;;;8.60;0.60;;;;;;;5.22;65.51;101017.02;106635;1274;22529;-58
2023/03/16 11:01:19;;;;;;;6.50;0.80;;;;;;;5.27;65.31;101022.00;106671;1267;23717;-55
2023/03/16 11:03:54;;;;;;;6.60;1.00;;;;;;;5.38;65.43;101018.14;106616;1275;22530;-55
2023/03/16 11:06:30;;;;;;;6.10;0.70;;;;;;;5.42;64.60;101021.53;106527;1267;22523;-56
2023/03/16 11:09:12;;;;;;;6.40;0.70;;;;;;;5.40;62.39;101018.65;106867;1270;24373;-55
2023/03/16 11:11:50;;;;;;;6.10;0.60;;;;;;;5.37;61.09;101021.65;106642;1274;22611;-55
2023/03/16 11:14:26;;;;;;;8.50;1.10;;;;;;;5.33;62.04;101023.22;106593;1259;22952;-58
2023/03/16 11:17:03;;;;;;;6.90;0.70;;;;;;;5.31;62.04;101019.08;106655;1267;22549;-55
2023/03/16 11:19:37;;;;;;;9.20;1.10;;;;;;;5.32;62.46;101020.39;106742;1273;22592;-57
2023/03/16 11:22:14;;;;;;;7.30;0.60;;;;;;;5.38;61.61;101018.77;106905;1274;22567;-58
2023/03/16 11:24:50;;;;;;;6.60;0.70;;;;;;;5.40;59.31;101016.60;106652;1267;22523;-55
2023/03/16 11:27:26;;;;;;;8.10;1.20;;;;;;;5.46;61.21;101014.03;106663;1260;22554;-58
2023/03/16 11:30:05;;;;;;;12.20;1.30;;;;;;;5.54;61.41;101014.19;106641;1261;22708;-55
2023/03/16 11:32:40;;;;;;;8.00;1.00;;;;;;;5.56;60.98;101012.02;106664;1267;26343;-55
2023/03/16 11:35:18;;;;;;;7.00;0.70;;;;;;;5.56;60.96;101014.63;106631;1267;22524;-58
2023/03/16 11:38:08;;;;;;;9.10;0.90;;;;;;;5.55;61.04;101014.64;106641;1274;24289;-57